createdAt,value
2019-02-05T00:01:45.705Z,4.70
2019-02-05T00:04:16.751Z,4.40
2019-02-05T00:06:50.434Z,5.73
2019-02-05T00:09:20.928Z,4.83
2019-02-05T00:11:52.704Z,5.37
2019-02-05T00:14:23.601Z,5.03
2019-02-05T00:16:54.051Z,4.73
2019-02-05T00:19:24.848Z,4.93
2019-02-05T00:21:55.462Z,4.40
2019-02-05T00:24:25.925Z,5.23
2019-02-05T00:26:56.348Z,5.37
2019-02-05T00:29:26.806Z,6.10
2019-02-05T00:31:57.165Z,5.10
2019-02-05T00:34:27.610Z,4.43
2019-02-05T00:37:01.373Z,4.30
2019-02-05T00:39:31.736Z,3.90
2019-02-05T00:42:02.172Z,4.80
2019-02-05T00:44:35.488Z,4.23
2019-02-05T00:47:06.071Z,4.90
2019-02-05T00:49:36.424Z,4.30
2019-02-05T00:52:08.954Z,4.87
2019-02-05T00:54:40.330Z,4.23
2019-02-05T00:57:13.776Z,4.53
2019-02-05T00:59:45.254Z,4.30
2019-02-05T01:02:18.021Z,5.03
2019-02-05T01:04:52.888Z,4.70
2019-02-05T01:07:23.371Z,4.80
2019-02-05T01:09:53.747Z,5.23
2019-02-05T01:12:24.122Z,5.53
2019-02-05T01:14:54.514Z,5.00
2019-02-05T01:17:25.138Z,5.17
2019-02-05T01:19:55.674Z,5.80
2019-02-05T01:22:26.263Z,5.93
2019-02-05T01:24:56.634Z,5.37
2019-02-05T01:27:27.045Z,5.90
2019-02-05T01:29:57.566Z,6.03
2019-02-05T01:32:28.953Z,5.80
2019-02-05T01:34:59.366Z,6.13
2019-02-05T01:37:29.891Z,6.30
2019-02-05T01:40:00.518Z,5.90
2019-02-05T01:42:30.910Z,6.43
2019-02-05T01:45:01.596Z,6.40
2019-02-05T01:47:34.213Z,6.50
2019-02-05T01:50:07.459Z,6.10
2019-02-05T01:52:38.110Z,6.33
2019-02-05T01:55:09.118Z,6.17
2019-02-05T01:57:39.741Z,5.97
2019-02-05T02:00:18.674Z,6.20
2019-02-05T02:02:53.243Z,6.87
2019-02-05T02:05:23.738Z,6.53
2019-02-05T02:07:55.367Z,6.33
2019-02-05T02:10:26.870Z,6.30
2019-02-05T02:12:58.755Z,6.37
2019-02-05T02:15:42.788Z,6.17
2019-02-05T02:18:25.201Z,6.57
2019-02-05T02:20:57.356Z,6.70
2019-02-05T02:23:27.854Z,8.67
2019-02-05T02:25:58.588Z,6.20
2019-02-05T02:28:29.038Z,6.33
2019-02-05T02:31:00.057Z,6.60
2019-02-05T02:33:33.505Z,6.70
2019-02-05T02:36:03.972Z,6.27
2019-02-05T02:38:36.450Z,6.40
2019-02-05T02:41:07.153Z,6.63
2019-02-05T02:43:42.166Z,6.70
2019-02-05T02:46:12.590Z,6.80
2019-02-05T02:48:43.059Z,6.63
2019-02-05T02:51:13.900Z,6.70
2019-02-05T02:53:47.389Z,6.93
2019-02-05T02:56:17.966Z,6.67
2019-02-05T02:58:50.020Z,6.67
2019-02-05T03:01:20.443Z,6.20
2019-02-05T03:03:52.829Z,6.10
2019-02-05T03:06:23.192Z,7.03
2019-02-05T03:08:56.639Z,6.70
2019-02-05T03:11:27.434Z,6.70
2019-02-05T03:13:59.310Z,6.80
2019-02-05T03:16:32.452Z,7.73
2019-02-05T03:19:04.489Z,6.37
2019-02-05T03:21:34.905Z,6.87
2019-02-05T03:24:05.578Z,6.83
2019-02-05T03:26:35.994Z,6.63
2019-02-05T03:29:06.381Z,7.07
2019-02-05T03:31:36.710Z,7.47
2019-02-05T03:34:07.948Z,8.20
2019-02-05T03:36:38.385Z,7.30
2019-02-05T03:39:09.292Z,8.10
2019-02-05T03:41:39.952Z,7.93
2019-02-05T03:44:10.322Z,8.03
2019-02-05T03:46:40.728Z,8.30
2019-02-05T03:49:11.182Z,7.90
2019-02-05T03:52:16.412Z,8.40
2019-02-05T03:55:10.707Z,9.60
2019-02-05T03:58:11.821Z,8.90
2019-02-05T04:01:02.992Z,9.80
2019-02-05T04:04:09.631Z,9.17
2019-02-05T04:07:44.855Z,10.23
2019-02-05T04:11:03.913Z,9.83
2019-02-05T04:14:11.217Z,10.23
2019-02-05T04:17:12.204Z,12.07
2019-02-05T04:19:57.489Z,11.03
2019-02-05T04:22:48.807Z,11.27
2019-02-05T04:26:05.309Z,11.43
2019-02-05T04:29:13.528Z,11.17
2019-02-05T04:32:18.192Z,12.30
2019-02-05T04:35:26.819Z,11.30
2019-02-05T04:38:59.302Z,10.90
2019-02-05T04:42:28.579Z,10.93
2019-02-05T04:45:34.130Z,11.20
2019-02-05T04:48:33.775Z,10.23
2019-02-05T04:51:49.458Z,10.77
2019-02-05T04:54:35.957Z,10.20
2019-02-05T04:57:40.945Z,10.17
2019-02-05T05:00:48.046Z,9.33
2019-02-05T05:03:35.211Z,9.30
2019-02-05T05:06:37.206Z,9.13
2019-02-05T05:09:16.532Z,8.87
2019-02-05T05:11:46.923Z,8.50
2019-02-05T05:14:17.291Z,8.83
2019-02-05T05:16:47.672Z,8.73
2019-02-05T05:19:18.467Z,9.37
2019-02-05T05:21:48.880Z,9.13
2019-02-05T05:24:21.475Z,10.30
2019-02-05T05:26:52.088Z,9.43
2019-02-05T05:29:22.700Z,9.83
2019-02-05T05:31:53.299Z,9.77
2019-02-05T05:34:24.335Z,10.27
2019-02-05T05:36:53.100Z,10.60
2019-02-05T05:39:30.019Z,9.53
2019-02-05T05:42:03.317Z,9.03
2019-02-05T05:44:39.699Z,9.33
2019-02-05T05:47:10.105Z,9.17
2019-02-05T05:49:40.620Z,9.00
2019-02-05T05:52:10.984Z,9.33
2019-02-05T05:54:42.630Z,9.83
2019-02-05T05:57:12.989Z,10.17
2019-02-05T05:59:45.245Z,9.10
2019-02-05T06:02:16.224Z,10.63
2019-02-05T06:04:46.852Z,10.90
2019-02-05T06:07:17.282Z,12.00
2019-02-05T06:09:47.933Z,11.23
2019-02-05T06:12:18.423Z,12.87
2019-02-05T06:14:49.147Z,11.93
2019-02-05T06:17:19.638Z,12.20
2019-02-05T06:19:50.062Z,13.47
2019-02-05T06:22:20.492Z,12.73
2019-02-05T06:24:50.937Z,11.87
2019-02-05T06:27:22.138Z,12.10
2019-02-05T06:29:52.765Z,12.97
2019-02-05T06:32:23.191Z,12.53
2019-02-05T06:34:57.216Z,13.37
2019-02-05T06:37:27.635Z,13.33
2019-02-05T06:39:58.132Z,13.93
2019-02-05T06:42:28.925Z,13.20
2019-02-05T06:44:59.355Z,14.07
2019-02-05T06:47:46.375Z,14.03
2019-02-05T06:50:18.581Z,13.83
2019-02-05T06:52:49.401Z,12.60
2019-02-05T06:55:28.357Z,13.43
2019-02-05T06:58:10.733Z,13.23
2019-02-05T07:00:48.326Z,13.17
2019-02-05T07:03:30.534Z,12.10
2019-02-05T07:06:10.587Z,12.13
2019-02-05T07:08:43.559Z,12.50
2019-02-05T07:11:14.047Z,11.70
2019-02-05T07:13:44.883Z,12.40
2019-02-05T07:16:16.923Z,12.07
2019-02-05T07:18:50.482Z,11.83
2019-02-05T07:21:21.024Z,12.33
2019-02-05T07:23:51.608Z,12.30
2019-02-05T07:26:22.516Z,13.07
2019-02-05T07:28:58.940Z,11.80
2019-02-05T07:31:25.112Z,11.93
2019-02-05T07:33:57.047Z,11.87
2019-02-05T07:36:27.568Z,12.13
2019-02-05T07:38:58.161Z,11.37
2019-02-05T07:41:28.933Z,10.50
2019-02-05T07:43:59.462Z,12.17
2019-02-05T07:46:29.870Z,11.13
2019-02-05T07:49:00.501Z,11.77
2019-02-05T07:51:31.044Z,11.70
2019-02-05T07:54:01.505Z,11.50
2019-02-05T07:56:34.082Z,11.37
2019-02-05T07:59:10.559Z,10.83
2019-02-05T08:01:43.673Z,11.90
2019-02-05T08:04:14.169Z,10.87
2019-02-05T08:06:44.757Z,11.77
2019-02-05T08:09:15.263Z,11.00
2019-02-05T08:11:45.782Z,11.67
2019-02-05T08:14:16.263Z,11.73
2019-02-05T08:16:47.953Z,11.47
2019-02-05T08:19:18.781Z,10.93
2019-02-05T08:21:49.636Z,10.80
2019-02-05T08:24:20.564Z,10.20
2019-02-05T08:26:54.163Z,9.67
2019-02-05T08:29:24.652Z,9.80
2019-02-05T08:31:55.016Z,9.87
2019-02-05T08:34:25.461Z,9.40
2019-02-05T08:36:58.271Z,10.37
2019-02-05T08:39:31.760Z,10.30
2019-02-05T08:42:02.195Z,10.03
2019-02-05T08:44:34.952Z,9.93
2019-02-05T08:47:05.509Z,10.17
2019-02-05T08:49:36.024Z,9.93
2019-02-05T08:52:08.243Z,9.60
2019-02-05T08:54:41.525Z,9.40
2019-02-05T08:57:12.678Z,10.13
2019-02-05T08:59:43.171Z,9.07
2019-02-05T09:02:13.667Z,9.33
2019-02-05T09:04:44.156Z,9.30
2019-02-05T09:07:15.248Z,9.43
2019-02-05T09:09:48.415Z,9.23
2019-02-05T09:12:21.107Z,8.10
2019-02-05T09:14:51.684Z,9.33
2019-02-05T09:17:24.308Z,9.97
2019-02-05T09:19:57.418Z,9.37
2019-02-05T09:22:31.117Z,9.20
2019-02-05T09:25:01.649Z,9.10
2019-02-05T09:27:33.242Z,9.70
2019-02-05T09:30:03.990Z,9.60
2019-02-05T09:32:35.089Z,9.67
2019-02-05T09:35:06.510Z,9.00
2019-02-05T09:37:37.013Z,10.17
2019-02-05T09:40:09.941Z,9.10
2019-02-05T09:42:43.441Z,9.33
2019-02-05T09:45:17.148Z,9.67
2019-02-05T09:47:47.713Z,8.90
2019-02-05T09:50:18.575Z,9.57
2019-02-05T09:52:49.093Z,10.17
2019-02-05T09:55:20.210Z,10.77
2019-02-05T09:57:50.664Z,9.63
2019-02-05T10:00:27.852Z,10.10
2019-02-05T10:02:59.056Z,9.83
2019-02-05T10:05:31.019Z,9.63
2019-02-05T10:08:03.736Z,9.87
2019-02-05T10:10:34.334Z,12.20
2019-02-05T10:13:05.236Z,9.43
2019-02-05T10:15:37.012Z,9.50
2019-02-05T10:18:08.812Z,9.23
2019-02-05T10:20:39.460Z,10.10
2019-02-05T10:23:10.456Z,10.70
2019-02-05T10:25:40.877Z,10.43
2019-02-05T10:28:11.845Z,13.20
2019-02-05T10:30:44.408Z,12.00
2019-02-05T10:33:14.867Z,10.67
2019-02-05T10:35:46.027Z,11.40
2019-02-05T10:38:16.831Z,12.47
2019-02-05T10:40:48.467Z,12.37
2019-02-05T10:43:19.068Z,11.93
2019-02-05T10:45:50.201Z,14.37
2019-02-05T10:48:23.609Z,12.67
2019-02-05T10:50:54.736Z,12.90
2019-02-05T10:53:27.476Z,12.60
2019-02-05T10:55:58.588Z,12.47
2019-02-05T10:58:29.489Z,12.03
2019-02-05T11:01:00.050Z,12.53
2019-02-05T11:03:30.649Z,11.67
2019-02-05T11:06:02.903Z,11.83
2019-02-05T11:08:33.363Z,11.60
2019-02-05T11:11:06.962Z,12.67
2019-02-05T11:13:37.560Z,12.87
2019-02-05T11:16:08.018Z,11.73
2019-02-05T11:18:38.553Z,13.83
2019-02-05T11:21:09.176Z,12.40
2019-02-05T11:23:39.610Z,13.27
2019-02-05T11:26:10.252Z,12.97
2019-02-05T11:28:40.974Z,12.03
2019-02-05T11:31:11.426Z,15.53
2019-02-05T11:33:45.949Z,12.63
2019-02-05T11:36:16.574Z,13.07
2019-02-05T11:38:47.118Z,12.07
2019-02-05T11:41:18.020Z,13.63
2019-02-05T11:43:48.840Z,11.60
2019-02-05T11:46:19.273Z,11.93
2019-02-05T11:48:49.874Z,11.53
2019-02-05T11:51:20.526Z,13.13
2019-02-05T11:53:51.080Z,12.87
2019-02-05T11:56:21.897Z,12.57
2019-02-05T11:58:52.436Z,12.03
2019-02-05T12:01:25.870Z,18.03
2019-02-05T12:03:57.549Z,13.43
2019-02-05T12:06:31.124Z,12.33
2019-02-05T12:09:02.268Z,11.27
2019-02-05T12:11:32.892Z,11.73
2019-02-05T12:14:04.110Z,11.30
2019-02-05T12:16:34.741Z,12.57
2019-02-05T12:19:05.978Z,12.70
2019-02-05T12:21:36.444Z,12.40
2019-02-05T12:24:07.157Z,12.03
2019-02-05T12:26:37.808Z,12.93
2019-02-05T12:29:08.447Z,12.87
2019-02-05T12:31:41.366Z,13.93
2019-02-05T12:34:11.856Z,12.07
2019-02-05T12:36:42.494Z,12.47
2019-02-05T12:39:20.150Z,11.50
2019-02-05T12:41:53.601Z,11.77
2019-02-05T12:44:24.261Z,12.20
2019-02-05T12:46:54.872Z,11.10
2019-02-05T12:49:25.269Z,13.93
2019-02-05T12:51:56.209Z,11.97
2019-02-05T12:54:26.736Z,12.00
2019-02-05T12:56:57.200Z,11.13
2019-02-05T12:59:27.709Z,11.70
2019-02-05T13:01:58.226Z,11.40
2019-02-05T13:04:28.819Z,11.27
2019-02-05T13:06:59.249Z,12.10
2019-02-05T13:09:29.774Z,11.57
2019-02-05T13:12:00.500Z,11.50
2019-02-05T13:14:31.340Z,11.03
2019-02-05T13:17:01.830Z,12.30
2019-02-05T13:19:32.744Z,10.90
2019-02-05T13:22:03.130Z,11.17
2019-02-05T13:24:33.617Z,11.73
2019-02-05T13:27:04.409Z,11.50
2019-02-05T13:29:34.710Z,10.40
2019-02-05T13:32:12.069Z,11.47
2019-02-05T13:34:42.655Z,11.90
2019-02-05T13:37:13.232Z,10.37
2019-02-05T13:39:43.712Z,10.50
2019-02-05T13:42:15.664Z,11.03
2019-02-05T13:44:47.007Z,10.63
2019-02-05T13:47:17.510Z,11.37
2019-02-05T13:49:48.286Z,10.47
2019-02-05T13:52:18.902Z,11.00
2019-02-05T13:54:49.349Z,10.33
2019-02-05T13:57:22.872Z,11.97
2019-02-05T13:59:53.393Z,11.23
2019-02-05T14:02:26.758Z,10.50
2019-02-05T14:04:57.159Z,9.90
2019-02-05T14:07:27.841Z,11.03
2019-02-05T14:09:58.257Z,11.63
2019-02-05T14:12:28.738Z,11.00
2019-02-05T14:15:00.257Z,10.73
2019-02-05T14:17:30.890Z,10.97
2019-02-05T14:20:01.326Z,11.10
2019-02-05T14:22:32.276Z,11.73
2019-02-05T14:25:02.935Z,12.77
2019-02-05T14:27:33.641Z,12.23
2019-02-05T14:30:04.799Z,11.80
2019-02-05T14:32:39.785Z,11.20
2019-02-05T14:35:10.505Z,12.63
2019-02-05T14:37:41.339Z,13.07
2019-02-05T14:40:13.923Z,13.27
2019-02-05T14:42:44.837Z,13.83
2019-02-05T14:45:15.557Z,14.90
2019-02-05T14:47:46.015Z,15.83
2019-02-05T14:50:25.605Z,14.87
2019-02-05T14:52:56.379Z,14.17
2019-02-05T14:55:33.418Z,14.80
2019-02-05T14:58:03.952Z,13.33
2019-02-05T15:00:34.880Z,12.83
2019-02-05T15:03:07.426Z,11.67
2019-02-05T15:05:38.194Z,11.63
2019-02-05T15:08:08.863Z,11.80
2019-02-05T15:10:39.498Z,12.13
2019-02-05T15:13:09.908Z,11.33
2019-02-05T15:15:41.250Z,11.17
2019-02-05T15:18:15.529Z,12.27
2019-02-05T15:20:47.540Z,11.43
2019-02-05T15:23:23.230Z,11.10
2019-02-05T15:25:54.146Z,11.77
2019-02-05T15:28:24.696Z,12.67
2019-02-05T15:30:55.164Z,13.37
2019-02-05T15:33:47.613Z,14.23
2019-02-05T15:36:23.737Z,13.43
2019-02-05T15:38:54.706Z,12.67
2019-02-05T15:41:27.477Z,14.50
2019-02-05T15:44:00.606Z,13.80
2019-02-05T15:46:30.188Z,15.70
2019-02-05T15:49:00.683Z,14.27
2019-02-05T15:51:31.139Z,14.53
2019-02-05T15:54:01.671Z,15.60
2019-02-05T15:56:32.161Z,14.50
2019-02-05T15:59:02.624Z,14.63
2019-02-05T16:01:32.985Z,15.70
2019-02-05T16:04:03.368Z,15.20
2019-02-05T16:06:34.800Z,15.10
2019-02-05T16:09:08.840Z,14.43
2019-02-05T16:11:41.098Z,15.30
2019-02-05T16:14:11.677Z,15.00
2019-02-05T16:16:44.292Z,15.37
2019-02-05T16:19:14.741Z,14.50
2019-02-05T16:21:45.216Z,15.37
2019-02-05T16:24:15.851Z,17.37
2019-02-05T16:26:47.585Z,15.60
2019-02-05T16:29:18.046Z,16.03
2019-02-05T16:31:48.533Z,17.03
2019-02-05T16:34:18.996Z,15.73
2019-02-05T16:36:49.620Z,13.87
2019-02-05T16:39:20.274Z,15.10
2019-02-05T16:41:50.961Z,16.17
2019-02-05T16:44:21.527Z,14.63
2019-02-05T16:46:51.980Z,14.80
2019-02-05T16:49:22.725Z,14.73
2019-02-05T16:51:53.141Z,15.47
2019-02-05T16:54:24.068Z,14.87
2019-02-05T16:56:54.735Z,14.70
2019-02-05T16:59:25.327Z,15.67
2019-02-05T17:01:57.283Z,15.50
2019-02-05T17:04:29.522Z,14.73
2019-02-05T17:07:00.346Z,14.17
2019-02-05T17:09:31.082Z,15.17
2019-02-05T17:12:01.686Z,14.83
2019-02-05T17:14:32.155Z,15.33
2019-02-05T17:17:02.787Z,15.93
2019-02-05T17:19:33.425Z,14.33
2019-02-05T17:22:04.348Z,14.37
2019-02-05T17:24:34.917Z,15.27
2019-02-05T17:27:05.626Z,14.00
2019-02-05T17:29:36.190Z,13.77
2019-02-05T17:32:07.860Z,14.30
2019-02-05T17:34:38.634Z,12.67
2019-02-05T17:37:09.221Z,13.57
2019-02-05T17:39:42.518Z,13.30
2019-02-05T17:42:13.197Z,13.27
2019-02-05T17:44:43.844Z,12.60
2019-02-05T17:47:14.704Z,12.37
2019-02-05T17:49:45.177Z,12.53
2019-02-05T17:52:15.762Z,12.30
2019-02-05T17:54:46.332Z,12.30
2019-02-05T17:57:16.992Z,12.00
2019-02-05T17:59:49.828Z,11.80
2019-02-05T18:02:20.923Z,12.87
2019-02-05T18:04:51.654Z,12.57
2019-02-05T18:07:24.319Z,12.70
2019-02-05T18:09:57.928Z,12.30
2019-02-05T18:12:28.481Z,13.13
2019-02-05T18:14:59.069Z,12.53
2019-02-05T18:17:29.889Z,13.50
2019-02-05T18:20:00.562Z,11.73
2019-02-05T18:22:31.432Z,11.90
2019-02-05T18:25:02.033Z,11.47
2019-02-05T18:27:34.893Z,12.73
2019-02-05T18:30:08.897Z,11.77
2019-02-05T18:32:39.459Z,10.90
2019-02-05T18:35:10.628Z,11.63
2019-02-05T18:37:41.252Z,10.77
2019-02-05T18:40:13.171Z,10.90
2019-02-05T18:42:44.137Z,10.57
2019-02-05T18:45:15.719Z,11.27
2019-02-05T18:47:48.666Z,11.17
2019-02-05T18:50:24.105Z,10.27
2019-02-05T18:52:55.029Z,11.10
2019-02-05T18:55:27.053Z,10.93
2019-02-05T18:58:08.414Z,11.63
2019-02-05T19:00:32.791Z,10.97
2019-02-05T19:03:14.513Z,11.20
2019-02-05T19:05:36.166Z,11.83
2019-02-05T19:08:07.436Z,11.20
2019-02-05T19:10:40.675Z,10.90
2019-02-05T19:13:11.778Z,12.27
2019-02-05T19:15:42.308Z,11.30
2019-02-05T19:18:13.017Z,12.93
2019-02-05T19:20:44.486Z,11.57
2019-02-05T19:23:15.500Z,11.27
2019-02-05T19:25:53.576Z,11.37
2019-02-05T19:28:32.583Z,10.97
2019-02-05T19:31:06.600Z,11.23
2019-02-05T19:33:37.496Z,10.90
2019-02-05T19:36:09.663Z,11.20
2019-02-05T19:38:42.442Z,11.07
2019-02-05T19:41:12.875Z,11.77
2019-02-05T19:43:43.423Z,11.23
2019-02-05T19:46:31.547Z,11.70
2019-02-05T19:49:21.410Z,11.73
2019-02-05T19:51:46.372Z,11.70
2019-02-05T19:54:18.165Z,11.60
2019-02-05T19:56:48.661Z,11.37
2019-02-05T19:59:19.444Z,10.90
2019-02-05T20:01:49.987Z,13.03
2019-02-05T20:04:20.404Z,11.67
2019-02-05T20:06:50.936Z,11.87
2019-02-05T20:09:21.546Z,11.50
2019-02-05T20:11:51.999Z,12.43
2019-02-05T20:14:22.590Z,12.37
2019-02-05T20:16:53.364Z,12.67
2019-02-05T20:19:24.988Z,11.30
2019-02-05T20:21:55.563Z,11.97
2019-02-05T20:24:26.367Z,12.13
2019-02-05T20:26:57.194Z,12.27
2019-02-05T20:29:28.271Z,12.30
2019-02-05T20:32:01.596Z,12.33
2019-02-05T20:34:32.067Z,12.20
2019-02-05T20:37:02.576Z,12.67
2019-02-05T20:39:33.150Z,13.23
2019-02-05T20:42:03.668Z,11.63
2019-02-05T20:44:34.504Z,12.90
2019-02-05T20:47:05.848Z,12.67
2019-02-05T20:49:36.457Z,12.17
2019-02-05T20:52:06.911Z,12.80
2019-02-05T20:54:37.916Z,12.70
2019-02-05T20:57:08.582Z,12.80
2019-02-05T20:59:39.112Z,12.90
2019-02-05T21:02:09.711Z,12.43
2019-02-05T21:04:48.091Z,13.27
2019-02-05T21:07:12.607Z,12.10
2019-02-05T21:09:46.121Z,12.40
2019-02-05T21:12:16.582Z,12.10
2019-02-05T21:14:47.144Z,12.60
2019-02-05T21:17:17.908Z,12.20
2019-02-05T21:19:48.395Z,12.50
2019-02-05T21:22:19.104Z,12.80
2019-02-05T21:24:49.776Z,13.03
2019-02-05T21:27:20.383Z,12.30
2019-02-05T21:29:50.875Z,12.47
2019-02-05T21:32:23.857Z,12.23
2019-02-05T21:34:54.594Z,12.17
2019-02-05T21:37:25.206Z,12.30
2019-02-05T21:40:02.483Z,11.70
2019-02-05T21:42:28.119Z,13.07
2019-02-05T21:44:58.885Z,16.17
2019-02-05T21:47:29.503Z,12.57
2019-02-05T21:49:59.963Z,12.60
2019-02-05T21:52:30.560Z,11.93
2019-02-05T21:55:01.159Z,12.20
2019-02-05T21:57:33.507Z,12.80
2019-02-05T22:00:04.930Z,12.10
2019-02-05T22:02:35.562Z,13.50
2019-02-05T22:05:08.250Z,12.20
2019-02-05T22:07:38.942Z,12.63
2019-02-05T22:10:10.496Z,11.30
2019-02-05T22:12:41.420Z,11.87
2019-02-05T22:15:13.025Z,13.03
2019-02-05T22:17:44.438Z,12.30
2019-02-05T22:20:19.719Z,12.60
2019-02-05T22:22:50.289Z,11.93
2019-02-05T22:25:25.487Z,12.10
2019-02-05T22:28:00.178Z,12.40
2019-02-05T22:30:32.563Z,12.23
2019-02-05T22:33:03.282Z,11.77
2019-02-05T22:35:33.957Z,12.03
2019-02-05T22:38:06.246Z,12.37
2019-02-05T22:40:39.075Z,12.67
2019-02-05T22:43:09.920Z,11.70
2019-02-05T22:45:41.189Z,11.97
2019-02-05T22:48:11.916Z,12.03
2019-02-05T22:50:43.345Z,11.97
2019-02-05T22:53:14.373Z,11.33
2019-02-05T22:55:44.921Z,11.87
2019-02-05T22:58:15.562Z,12.57
2019-02-05T23:01:29.558Z,11.30
2019-02-05T23:04:11.321Z,12.30
2019-02-05T23:06:57.317Z,11.70
2019-02-05T23:09:39.478Z,12.00
2019-02-05T23:12:20.468Z,10.97
2019-02-05T23:14:57.961Z,9.93
2019-02-05T23:17:28.787Z,10.17
2019-02-05T23:19:59.403Z,10.57
2019-02-05T23:22:30.020Z,11.27
2019-02-05T23:25:03.774Z,10.60
2019-02-05T23:27:35.197Z,10.63
2019-02-05T23:30:11.897Z,10.97
2019-02-05T23:32:42.597Z,11.07
2019-02-05T23:35:13.139Z,10.53
2019-02-05T23:37:43.959Z,10.07
2019-02-05T23:40:16.403Z,10.43
2019-02-05T23:42:47.569Z,10.47
2019-02-05T23:45:18.394Z,10.47
2019-02-05T23:47:49.180Z,10.70
2019-02-05T23:50:19.967Z,10.80
2019-02-05T23:52:50.432Z,9.97
2019-02-05T23:55:23.744Z,10.37
2019-02-05T23:57:54.277Z,9.47
